Time;durP1;ratioP1;P1;durP2;ratioP2;P2;SDS_P1;SDS_P2;PMS_P1;PMS_P2;Temp;Humidity;BMP_temperature;BMP_pressure;BME280_temperature;BME280_humidity;BME280_pressure;Samples;Min_cycle;Max_cycle;Signal;HPM_P1;HPM_P2
2022/09/10 00:00:42;;;;;;;9.00;3.40;;;18.00;79.80;;;;;;5058078;28;20055;-68
2022/09/10 00:03:09;;;;;;;7.65;3.17;;;18.00;79.70;;;;;;5083729;28;20039;-68
2022/09/10 00:05:40;;;;;;;8.23;2.70;;;18.00;79.70;;;;;;5093908;28;20036;-69
2022/09/10 00:08:06;;;;;;;8.27;3.50;;;18.00;79.80;;;;;;5073220;28;20035;-68
2022/09/10 00:10:44;;;;;;;6.15;2.70;;;17.90;79.70;;;;;;5091050;28;20465;-68
2022/09/10 00:13:11;;;;;;;8.73;3.13;;;18.00;79.80;;;;;;5095264;28;20036;-68
2022/09/10 00:15:39;;;;;;;8.95;2.80;;;17.90;79.80;;;;;;5077249;28;20027;-68
2022/09/10 00:18:05;;;;;;;8.55;3.15;;;17.90;79.80;;;;;;5096231;28;20051;-68
2022/09/10 00:20:31;;;;;;;9.25;3.10;;;18.00;79.80;;;;;;5093450;28;20448;-68
2022/09/10 00:22:56;;;;;;;5.63;2.50;;;18.00;79.80;;;;;;5078350;28;20119;-69
2022/09/10 00:25:22;;;;;;;7.13;3.05;;;18.00;79.80;;;;;;5095692;28;20059;-69
2022/09/10 00:27:48;;;;;;;5.95;2.67;;;18.00;79.80;;;;;;5094498;28;20099;-69
2022/09/10 00:30:13;;;;;;;6.93;3.53;;;18.00;79.70;;;;;;5077167;28;20020;-68
2022/09/10 00:32:39;;;;;;;8.95;3.65;;;18.00;79.70;;;;;;5096047;28;20488;-68
2022/09/10 00:35:05;;;;;;;10.48;3.85;;;18.00;79.60;;;;;;5077647;28;20161;-68
2022/09/10 00:37:31;;;;;;;9.13;3.67;;;18.00;79.70;;;;;;5095805;28;20035;-68
2022/09/10 00:39:57;;;;;;;7.75;3.80;;;18.00;79.70;;;;;;5084788;28;20021;-69
2022/09/10 00:42:23;;;;;;;9.95;4.68;;;18.00;79.70;;;;;;5074069;28;20035;-68
2022/09/10 00:45:00;;;;;;;11.30;4.25;;;18.00;79.80;;;;;;5094770;28;20023;-68
2022/09/10 00:47:34;;;;;;;11.15;4.95;;;18.00;79.70;;;;;;5095144;28;20142;-68
2022/09/10 00:50:26;;;;;;;8.27;4.50;;;18.00;79.60;;;;;;5077426;28;20448;-68
2022/09/10 00:52:56;;;;;;;9.30;4.43;;;18.00;79.70;;;;;;5077707;28;20042;-68
2022/09/10 00:55:22;;;;;;;10.43;4.53;;;18.00;79.80;;;;;;5068569;28;20553;-68
2022/09/10 00:57:53;;;;;;;10.40;4.72;;;18.00;79.80;;;;;;5075864;28;20457;-69
2022/09/10 01:00:19;;;;;;;;;;;18.00;79.70;;;;;;5067427;28;20021;-68
2022/09/10 01:02:45;;;;;;;11.18;5.35;;;18.00;79.60;;;;;;5075286;28;19908;-69
2022/09/10 01:05:13;;;;;;;10.10;5.80;;;17.90;79.70;;;;;;5077043;28;20111;-68
2022/09/10 01:07:39;;;;;;;12.77;5.68;;;18.00;79.80;;;;;;5077120;28;20036;-68
2022/09/10 01:10:16;;;;;;;11.57;5.28;;;18.00;79.80;;;;;;5074464;28;20026;-68
2022/09/10 01:12:53;;;;;;;12.68;6.97;;;18.00;79.80;;;;;;5077456;28;20050;-68
2022/09/10 01:16:01;;;;;;;9.98;6.40;;;17.90;79.80;;;;;;5069098;28;20025;-68
2022/09/10 01:18:56;;;;;;;12.18;6.90;;;18.00;79.80;;;;;;5070341;28;20051;-68
2022/09/10 01:21:34;;;;;;;15.00;6.75;;;18.00;80.00;;;;;;5073200;28;20472;-68
2022/09/10 01:24:26;;;;;;;11.07;7.45;;;17.90;80.00;;;;;;5095066;28;20548;-68
2022/09/10 01:27:20;;;;;;;13.90;7.50;;;18.00;80.00;;;;;;5093182;28;20106;-68
2022/09/10 01:30:25;;;;;;;14.63;8.18;;;18.00;80.00;;;;;;5069343;28;20028;-68
2022/09/10 01:33:01;;;;;;;12.23;7.15;;;17.90;79.90;;;;;;5074155;28;20020;-69
2022/09/10 01:35:35;;;;;;;12.68;8.02;;;17.90;80.00;;;;;;5074614;28;20353;-69
2022/09/10 01:38:05;;;;;;;11.07;7.68;;;17.90;80.00;;;;;;5094185;28;20038;-68
2022/09/10 01:40:33;;;;;;;13.48;8.43;;;17.90;80.00;;;;;;5082986;28;20040;-68
2022/09/10 01:43:09;;;;;;;;;;;18.00;80.00;;;;;;5077778;28;20039;-68
2022/09/10 01:45:45;;;;;;;12.27;7.50;;;17.90;79.80;;;;;;5092325;28;19947;-68
2022/09/10 01:48:26;;;;;;;13.65;7.55;;;17.90;80.00;;;;;;5064306;28;20028;-68
2022/09/10 01:51:30;;;;;;;14.15;8.77;;;17.90;80.00;;;;;;5075325;28;20463;-68
2022/09/10 01:54:17;;;;;;;15.23;9.02;;;18.00;80.00;;;;;;5064283;28;20144;-69
2022/09/10 01:57:13;;;;;;;14.82;8.68;;;18.00;80.00;;;;;;5071655;28;20024;-69
2022/09/10 02:00:16;;;;;;;12.55;9.07;;;18.00;80.00;;;;;;5076721;28;20020;-68
2022/09/10 02:02:59;;;;;;;11.73;8.40;;;18.00;79.90;;;;;;5032959;28;20025;-69
2022/09/10 02:05:30;;;;;;;13.27;8.23;;;17.90;80.00;;;;;;5029180;28;20189;-68
2022/09/10 02:08:02;;;;;;;14.73;9.10;;;17.90;80.00;;;;;;5004037;28;20118;-68
2022/09/10 02:10:29;;;;;;;15.10;8.88;;;17.90;80.10;;;;;;5020624;28;20489;-68
2022/09/10 02:12:55;;;;;;;13.25;8.55;;;17.90;80.00;;;;;;5032948;28;20037;-68
2022/09/10 02:15:42;;;;;;;13.98;8.80;;;18.00;80.10;;;;;;5026849;28;20466;-68
2022/09/10 02:18:19;;;;;;;13.38;8.27;;;18.00;80.20;;;;;;5019431;28;20078;-68
2022/09/10 02:20:49;;;;;;;13.13;8.40;;;17.90;80.10;;;;;;5017710;28;20071;-69
2022/09/10 02:23:18;;;;;;;14.45;8.48;;;17.90;80.10;;;;;;5024363;28;20045;-69
2022/09/10 02:25:44;;;;;;;19.45;8.73;;;18.00;80.20;;;;;;5009158;28;20030;-69
2022/09/10 02:28:10;;;;;;;13.20;8.73;;;18.00;80.30;;;;;;4997094;28;20566;-69
2022/09/10 02:30:36;;;;;;;16.00;9.18;;;18.00;80.30;;;;;;5018550;28;20042;-68
2022/09/10 02:33:02;;;;;;;14.25;9.25;;;18.00;80.40;;;;;;5022266;28;20026;-68
2022/09/10 02:35:28;;;;;;;17.35;8.70;;;17.90;80.40;;;;;;5008113;28;20217;-68
2022/09/10 02:37:55;;;;;;;14.35;9.15;;;18.00;80.50;;;;;;5074744;28;20111;-68
2022/09/10 02:40:21;;;;;;;13.30;9.15;;;18.00;80.50;;;;;;5059060;28;20441;-69
2022/09/10 02:42:47;;;;;;;12.75;8.82;;;17.90;80.50;;;;;;5077450;28;20047;-68
2022/09/10 02:45:17;;;;;;;15.63;9.15;;;18.00;80.50;;;;;;5073588;28;20028;-69
2022/09/10 02:47:43;;;;;;;15.48;9.63;;;18.00;80.40;;;;;;5074263;28;20062;-69
2022/09/10 02:50:08;;;;;;;15.40;10.10;;;18.00;81.00;;;;;;5073854;28;20429;-68
2022/09/10 02:52:34;;;;;;;14.40;9.25;;;17.90;80.40;;;;;;5080022;28;20052;-69
2022/09/10 02:55:00;;;;;;;13.50;9.27;;;18.00;80.50;;;;;;5078236;28;20034;-69
2022/09/10 02:57:26;;;;;;;18.35;9.68;;;17.90;80.40;;;;;;5051160;28;20364;-68
2022/09/10 02:59:55;;;;;;;14.05;8.98;;;18.00;80.50;;;;;;5073674;28;20031;-69
2022/09/10 03:02:21;;;;;;;12.82;8.80;;;18.00;80.50;;;;;;5078984;28;20436;-68
2022/09/10 03:04:47;;;;;;;12.95;9.20;;;18.00;80.50;;;;;;5096968;28;20077;-69
2022/09/10 03:07:16;;;;;;;13.88;8.80;;;18.00;80.50;;;;;;5079045;28;20382;-68
2022/09/10 03:09:43;;;;;;;16.52;8.82;;;18.00;80.60;;;;;;5097298;28;20028;-69
2022/09/10 03:12:09;;;;;;;14.20;8.93;;;18.00;80.60;;;;;;5076468;28;20074;-68
2022/09/10 03:14:35;;;;;;;13.73;8.85;;;18.00;80.60;;;;;;5080026;28;20361;-69
2022/09/10 03:17:01;;;;;;;12.85;8.70;;;17.90;80.50;;;;;;5055434;28;20048;-68
2022/09/10 03:19:27;;;;;;;13.55;8.75;;;18.00;80.50;;;;;;5075633;28;20025;-69
2022/09/10 03:21:53;;;;;;;11.85;8.98;;;18.00;80.60;;;;;;5097066;28;20028;-69
2022/09/10 03:24:18;;;;;;;13.55;9.50;;;17.90;80.60;;;;;;5087840;28;20043;-68
2022/09/10 03:26:46;;;;;;;13.05;9.80;;;18.00;80.70;;;;;;5067326;28;20492;-69
2022/09/10 03:29:14;;;;;;;11.70;8.85;;;18.00;80.70;;;;;;5057070;28;20464;-69
2022/09/10 03:31:41;;;;;;;14.05;10.13;;;18.00;80.70;;;;;;5073408;28;20453;-69
2022/09/10 03:34:11;;;;;;;13.32;9.68;;;17.90;80.70;;;;;;5075770;28;20479;-69
2022/09/10 03:36:37;;;;;;;13.75;8.95;;;17.90;81.50;;;;;;5073385;28;20031;-69
2022/09/10 03:39:05;;;;;;;14.45;9.60;;;17.90;80.90;;;;;;5068214;28;20449;-69
2022/09/10 03:41:31;;;;;;;13.30;10.18;;;17.90;80.90;;;;;;5077680;28;20037;-69
2022/09/10 03:43:57;;;;;;;13.00;9.13;;;17.90;81.00;;;;;;5053751;28;20403;-68
2022/09/10 03:46:24;;;;;;;14.10;9.68;;;17.90;81.00;;;;;;5078481;28;20061;-69
2022/09/10 03:48:51;;;;;;;13.50;9.25;;;18.00;81.10;;;;;;5059650;28;20024;-68
2022/09/10 03:51:22;;;;;;;14.23;9.93;;;17.90;81.00;;;;;;5061436;28;20067;-68
2022/09/10 03:53:47;;;;;;;12.88;9.32;;;17.90;81.10;;;;;;5075613;28;20032;-68
2022/09/10 03:56:18;;;;;;;11.20;8.90;;;17.90;81.10;;;;;;5073333;28;20023;-68
2022/09/10 03:58:45;;;;;;;15.05;9.63;;;17.90;81.20;;;;;;5050786;28;20465;-68
2022/09/10 04:01:10;;;;;;;13.23;9.35;;;17.90;81.20;;;;;;5069445;28;20337;-68
2022/09/10 04:03:40;;;;;;;12.63;8.88;;;17.90;81.30;;;;;;5073699;28;20024;-68
2022/09/10 04:06:11;;;;;;;13.23;8.85;;;17.90;81.40;;;;;;5076660;28;20035;-68
2022/09/10 04:08:37;;;;;;;15.02;9.13;;;17.90;81.40;;;;;;5095650;28;20515;-68
2022/09/10 04:11:06;;;;;;;12.77;9.30;;;17.90;82.00;;;;;;5076681;28;20020;-68
2022/09/10 04:13:31;;;;;;;12.90;8.70;;;17.90;81.40;;;;;;5055760;28;20026;-69
2022/09/10 04:16:01;;;;;;;12.23;8.63;;;17.90;81.50;;;;;;5079307;28;20106;-68
2022/09/10 04:18:28;;;;;;;12.60;9.68;;;17.90;81.50;;;;;;5078604;28;20372;-68
2022/09/10 04:20:55;;;;;;;13.05;8.90;;;17.90;81.50;;;;;;5074339;28;20101;-68
2022/09/10 04:23:21;;;;;;;13.65;9.07;;;17.90;81.50;;;;;;5088833;28;20047;-68
2022/09/10 04:25:48;;;;;;;11.23;8.23;;;17.90;81.50;;;;;;5061812;28;20032;-68
2022/09/10 04:28:13;;;;;;;13.55;8.50;;;17.90;81.50;;;;;;5061422;28;20031;-68
2022/09/10 04:30:39;;;;;;;13.93;9.38;;;17.90;81.50;;;;;;5072025;28;20024;-68
2022/09/10 04:33:06;;;;;;;12.35;9.20;;;17.90;81.50;;;;;;5074309;28;20448;-68
2022/09/10 04:35:32;;;;;;;13.15;9.05;;;17.90;81.50;;;;;;5077581;28;20016;-68
2022/09/10 04:37:59;;;;;;;12.45;8.63;;;17.90;81.60;;;;;;5062094;28;20024;-68
2022/09/10 04:40:26;;;;;;;12.50;8.80;;;17.90;81.70;;;;;;5066035;28;20469;-69
2022/09/10 04:42:51;;;;;;;14.35;9.30;;;17.90;81.60;;;;;;5075924;28;20020;-69
2022/09/10 04:45:18;;;;;;;12.35;8.65;;;17.90;81.60;;;;;;5076980;28;20031;-68
2022/09/10 04:47:45;;;;;;;12.77;7.68;;;17.90;81.70;;;;;;5064446;28;20024;-69
2022/09/10 04:50:14;;;;;;;12.30;8.43;;;17.90;81.80;;;;;;5075652;28;20074;-68
2022/09/10 04:52:42;;;;;;;12.57;8.48;;;17.90;81.80;;;;;;5083704;28;20043;-69
2022/09/10 04:55:11;;;;;;;13.40;8.10;;;17.90;81.90;;;;;;5078336;28;20031;-68
2022/09/10 04:57:37;;;;;;;11.68;8.30;;;17.90;81.90;;;;;;5078425;28;20593;-69
2022/09/10 05:00:08;;;;;;;12.30;8.68;;;17.90;81.90;;;;;;5078165;28;20028;-68
2022/09/10 05:02:36;;;;;;;12.68;8.10;;;17.90;81.90;;;;;;5077319;28;20028;-68
2022/09/10 05:05:02;;;;;;;11.90;8.70;;;17.90;81.90;;;;;;5077373;28;20027;-68
2022/09/10 05:07:29;;;;;;;11.68;8.45;;;17.90;81.90;;;;;;5076872;28;20027;-68
2022/09/10 05:09:54;;;;;;;12.98;7.75;;;17.90;82.00;;;;;;5072627;28;20406;-68
2022/09/10 05:12:23;;;;;;;14.05;8.38;;;17.90;82.00;;;;;;5093555;28;20043;-68
2022/09/10 05:14:48;;;;;;;12.30;8.18;;;17.90;82.00;;;;;;5076756;28;20030;-68
2022/09/10 05:17:14;;;;;;;10.73;8.00;;;17.90;82.00;;;;;;5095464;28;20032;-68
2022/09/10 05:19:40;;;;;;;9.80;7.35;;;17.90;82.00;;;;;;5077555;28;20377;-69
2022/09/10 05:22:08;;;;;;;15.30;8.65;;;17.90;82.00;;;;;;5047443;28;20021;-68
2022/09/10 05:24:34;;;;;;;11.38;8.02;;;17.90;82.10;;;;;;5094547;28;20039;-68
2022/09/10 05:27:02;;;;;;;12.38;8.07;;;18.00;82.10;;;;;;5077446;28;20020;-68
2022/09/10 05:29:27;;;;;;;11.80;8.13;;;18.00;82.00;;;;;;5077479;28;20054;-68
2022/09/10 05:31:53;;;;;;;10.20;7.18;;;18.00;82.00;;;;;;5048119;28;20033;-68
2022/09/10 05:34:19;;;;;;;11.75;7.53;;;18.00;82.00;;;;;;5072141;28;20031;-69
2022/09/10 05:36:45;;;;;;;10.80;7.78;;;18.00;82.00;;;;;;5060277;28;20024;-67
2022/09/10 05:39:10;;;;;;;10.45;7.15;;;18.10;81.90;;;;;;5076098;28;20031;-67
2022/09/10 05:41:36;;;;;;;10.63;7.65;;;18.10;81.90;;;;;;5068138;28;20032;-68
2022/09/10 05:44:02;;;;;;;11.90;7.93;;;18.10;81.90;;;;;;5048632;28;20077;-67
2022/09/10 05:46:29;;;;;;;10.05;7.20;;;18.10;81.90;;;;;;5076838;28;20080;-68
2022/09/10 05:48:58;;;;;;;11.13;7.72;;;18.10;81.90;;;;;;5063624;28;20110;-67
2022/09/10 05:51:28;;;;;;;11.05;7.82;;;18.10;81.90;;;;;;5059108;28;20032;-68
2022/09/10 05:53:56;;;;;;;10.30;7.80;;;18.10;81.90;;;;;;5073247;28;20027;-67
2022/09/10 05:56:24;;;;;;;10.82;7.75;;;18.10;81.90;;;;;;5075622;28;20028;-68
2022/09/10 05:58:50;;;;;;;13.52;8.10;;;18.10;82.00;;;;;;5076949;28;20459;-67
2022/09/10 06:01:16;;;;;;;11.50;8.27;;;18.20;82.10;;;;;;5070717;28;20025;-67
2022/09/10 06:03:43;;;;;;;11.82;8.23;;;18.20;82.10;;;;;;5048929;28;20114;-67
2022/09/10 06:06:09;;;;;;;11.45;7.88;;;18.20;82.10;;;;;;5081346;28;20025;-68
2022/09/10 06:08:38;;;;;;;10.57;7.50;;;18.20;82.10;;;;;;5066858;28;20445;-67
2022/09/10 06:11:10;;;;;;;12.27;7.95;;;18.20;82.20;;;;;;5079436;28;20028;-67
2022/09/10 06:13:41;;;;;;;12.77;7.38;;;18.10;82.30;;;;;;5069739;28;20024;-67
2022/09/10 06:16:07;;;;;;;10.93;7.65;;;18.10;82.30;;;;;;5076216;28;20510;-67
2022/09/10 06:18:33;;;;;;;10.50;7.57;;;18.10;82.40;;;;;;5076421;28;20469;-68
2022/09/10 06:21:02;;;;;;;10.30;7.45;;;18.10;82.50;;;;;;5076782;28;20040;-69
2022/09/10 06:23:28;;;;;;;11.18;7.35;;;18.10;82.60;;;;;;5068615;28;20028;-68
2022/09/10 06:26:07;;;;;;;10.73;7.88;;;18.10;82.70;;;;;;5072836;28;20403;-68
2022/09/10 06:28:34;;;;;;;13.80;9.10;;;18.00;82.80;;;;;;5076565;28;20036;-68
2022/09/10 06:31:03;;;;;;;15.60;9.70;;;18.00;82.80;;;;;;5076682;28;20016;-68
2022/09/10 06:33:30;;;;;;;16.75;10.75;;;17.90;82.80;;;;;;5074095;28;20035;-68
2022/09/10 06:35:58;;;;;;;15.90;11.07;;;17.90;82.90;;;;;;5076355;28;20095;-68
2022/09/10 06:38:26;;;;;;;14.82;9.15;;;17.90;83.00;;;;;;5082473;28;20033;-68
2022/09/10 06:40:54;;;;;;;12.25;8.90;;;17.90;83.00;;;;;;5090731;28;20028;-68
2022/09/10 06:43:26;;;;;;;12.63;8.93;;;17.90;83.10;;;;;;5065193;28;20073;-68
2022/09/10 06:46:08;;;;;;;11.47;8.07;;;17.90;83.20;;;;;;5075743;28;20016;-69
2022/09/10 06:48:49;;;;;;;12.25;7.70;;;17.90;83.20;;;;;;5067982;28;20052;-69
2022/09/10 06:51:17;;;;;;;12.85;7.20;;;17.80;83.10;;;;;;5048032;28;20021;-68
2022/09/10 06:53:47;;;;;;;11.63;7.75;;;17.90;83.30;;;;;;5057609;28;20024;-69
2022/09/10 06:56:16;;;;;;;12.32;7.93;;;17.80;83.30;;;;;;5072257;28;20028;-67
2022/09/10 06:58:43;;;;;;;10.43;7.25;;;17.80;83.40;;;;;;5074266;28;20024;-68
2022/09/10 07:01:18;;;;;;;10.73;7.57;;;17.80;83.50;;;;;;5071315;28;20024;-67
2022/09/10 07:03:54;;;;;;;11.35;7.80;;;17.80;83.60;;;;;;5075859;28;20024;-69
2022/09/10 07:06:22;;;;;;;11.25;7.75;;;17.80;83.60;;;;;;5056817;28;20031;-67
2022/09/10 07:08:54;;;;;;;13.25;8.48;;;17.80;83.60;;;;;;5052500;28;20538;-67
2022/09/10 07:11:19;;;;;;;12.63;8.05;;;17.80;83.50;;;;;;5070364;28;20020;-67
2022/09/10 07:13:49;;;;;;;12.00;8.88;;;17.90;83.60;;;;;;5068353;28;20026;-68
2022/09/10 07:16:22;;;;;;;13.75;8.48;;;17.80;83.70;;;;;;5059331;28;20348;-69
2022/09/10 07:18:53;;;;;;;13.55;9.13;;;17.90;83.80;;;;;;5067347;28;20040;-68
2022/09/10 07:21:21;;;;;;;13.30;8.48;;;17.80;83.60;;;;;;5059767;28;20032;-68
2022/09/10 07:23:47;;;;;;;13.05;8.63;;;17.90;83.70;;;;;;5058292;28;20036;-68
2022/09/10 07:26:16;;;;;;;12.40;8.85;;;17.90;83.70;;;;;;5057197;28;20024;-69
2022/09/10 07:28:45;;;;;;;16.50;10.18;;;17.90;83.70;;;;;;5066233;28;20032;-69
2022/09/10 07:31:18;;;;;;;14.93;10.20;;;17.80;83.70;;;;;;5071677;28;20174;-67
2022/09/10 07:33:46;;;;;;;13.73;9.30;;;17.80;83.80;;;;;;5079382;28;20063;-68
2022/09/10 07:36:13;;;;;;;14.70;10.75;;;17.90;83.80;;;;;;5076169;28;20020;-68
2022/09/10 07:38:40;;;;;;;15.48;10.68;;;17.90;83.80;;;;;;5067719;28;20040;-67
2022/09/10 07:41:10;;;;;;;16.02;10.43;;;17.90;83.80;;;;;;5073085;28;20153;-67
2022/09/10 07:43:37;;;;;;;14.90;10.70;;;17.90;83.70;;;;;;5072159;28;20024;-68
2022/09/10 07:46:10;;;;;;;14.88;9.98;;;17.90;83.80;;;;;;5097455;28;20032;-67
2022/09/10 07:48:37;;;;;;;13.48;9.77;;;17.90;83.80;;;;;;5097444;28;20050;-68
2022/09/10 07:51:06;;;;;;;14.43;10.63;;;17.90;83.80;;;;;;5061750;28;20073;-67
2022/09/10 07:53:34;;;;;;;15.85;11.38;;;17.90;83.90;;;;;;5064025;28;20040;-67
2022/09/10 07:56:03;;;;;;;14.30;10.85;;;18.00;83.90;;;;;;5074220;28;20070;-68
2022/09/10 07:58:34;;;;;;;13.73;10.15;;;18.00;83.80;;;;;;5079596;28;20054;-68
2022/09/10 08:01:11;;;;;;;16.08;10.43;;;18.00;83.80;;;;;;5070570;28;20354;-67
2022/09/10 08:03:38;;;;;;;14.70;10.85;;;18.00;83.80;;;;;;5066061;28;20020;-69
2022/09/10 08:06:06;;;;;;;15.05;11.65;;;18.10;83.80;;;;;;5078037;28;20078;-67
2022/09/10 08:08:34;;;;;;;14.02;9.95;;;18.10;83.90;;;;;;5078382;28;20047;-68
2022/09/10 08:11:15;;;;;;;14.68;10.43;;;18.10;83.80;;;;;;5070272;28;20021;-68
2022/09/10 08:13:44;;;;;;;12.80;10.85;;;18.20;84.00;;;;;;5068037;28;20113;-69
2022/09/10 08:16:14;;;;;;;14.52;10.40;;;18.20;83.90;;;;;;5078857;28;20032;-69
2022/09/10 08:18:40;;;;;;;13.88;10.68;;;18.20;83.90;;;;;;5079313;28;20032;-69
2022/09/10 08:21:09;;;;;;;14.70;10.52;;;18.30;84.00;;;;;;5062171;28;20027;-69
2022/09/10 08:23:40;;;;;;;15.00;10.27;;;18.30;84.00;;;;;;5078969;28;20032;-69
2022/09/10 08:26:07;;;;;;;13.98;9.80;;;18.30;84.00;;;;;;5059188;28;20105;-69
2022/09/10 08:28:34;;;;;;;14.73;10.02;;;18.30;83.90;;;;;;5078262;28;20036;-69
2022/09/10 08:31:07;;;;;;;12.43;9.63;;;18.30;83.90;;;;;;5062259;28;20024;-69
2022/09/10 08:33:39;;;;;;;13.02;9.45;;;18.40;83.90;;;;;;5063130;28;20023;-69
2022/09/10 08:36:06;;;;;;;14.18;9.85;;;18.30;83.80;;;;;;5078599;28;20471;-69
2022/09/10 08:38:34;;;;;;;11.95;9.65;;;18.40;83.80;;;;;;5078563;28;20031;-69
2022/09/10 08:41:08;;;;;;;12.30;9.05;;;18.40;83.80;;;;;;5078311;28;20023;-69
2022/09/10 08:43:41;;;;;;;13.10;9.15;;;18.50;83.80;;;;;;5096867;28;20039;-69
2022/09/10 08:46:20;;;;;;;12.60;9.32;;;18.50;83.70;;;;;;5062158;28;20024;-69
2022/09/10 08:48:50;;;;;;;12.20;9.80;;;18.50;83.70;;;;;;5078412;28;20028;-69
2022/09/10 08:51:28;;;;;;;13.02;9.85;;;18.60;83.80;;;;;;5096636;28;20403;-69
2022/09/10 08:54:16;;;;;;;12.15;9.25;;;18.60;83.70;;;;;;5077794;28;20356;-69
2022/09/10 08:56:42;;;;;;;11.05;9.30;;;18.70;83.70;;;;;;5061857;28;20034;-69
2022/09/10 08:59:23;;;;;;;11.25;9.82;;;18.70;83.60;;;;;;5078365;28;20039;-69
2022/09/10 09:01:59;;;;;;;10.80;8.27;;;18.80;83.50;;;;;;5078550;28;20035;-69
2022/09/10 09:04:43;;;;;;;12.32;8.88;;;18.80;83.40;;;;;;5078530;28;20111;-69
2022/09/10 09:07:15;;;;;;;12.48;10.07;;;19.00;83.40;;;;;;5064656;28;20028;-69
2022/09/10 09:09:50;;;;;;;12.43;9.80;;;19.10;83.30;;;;;;5077843;28;20081;-69
2022/09/10 09:12:41;;;;;;;11.88;9.70;;;19.20;83.10;;;;;;5096190;28;20024;-69
2022/09/10 09:15:30;;;;;;;12.48;9.60;;;19.30;82.70;;;;;;5078072;28;20020;-70
2022/09/10 09:18:18;;;;;;;12.75;9.57;;;19.40;82.60;;;;;;5077909;28;20395;-69
2022/09/10 09:20:47;;;;;;;11.88;10.13;;;19.50;82.40;;;;;;5045123;28;20043;-69
2022/09/10 09:23:20;;;;;;;11.90;10.55;;;19.70;82.10;;;;;;5076617;28;20111;-69
2022/09/10 09:25:56;;;;;;;11.77;10.43;;;19.80;82.00;;;;;;5077600;28;20028;-69
2022/09/10 09:28:50;;;;;;;14.07;11.32;;;19.90;81.90;;;;;;5064931;28;20020;-69
2022/09/10 09:31:24;;;;;;;12.57;10.45;;;20.00;81.50;;;;;;5077495;28;20026;-69
2022/09/10 09:33:58;;;;;;;14.93;12.45;;;20.00;81.40;;;;;;5078084;28;20032;-69
2022/09/10 09:36:30;;;;;;;9.95;7.38;;;19.90;81.50;;;;;;5077434;28;20028;-69
2022/09/10 09:38:56;;;;;;;9.13;6.65;;;19.90;81.50;;;;;;5060575;28;20085;-69
2022/09/10 09:41:48;;;;;;;8.88;5.97;;;19.80;81.70;;;;;;5061167;28;20434;-69
2022/09/10 09:44:28;;;;;;;6.82;4.55;;;19.60;82.00;;;;;;5060982;28;20486;-68
2022/09/10 09:46:55;;;;;;;7.97;4.00;;;19.50;82.20;;;;;;5077668;28;20028;-68
2022/09/10 09:49:22;;;;;;;7.57;3.58;;;19.40;82.40;;;;;;5060759;28;20035;-69
2022/09/10 09:51:50;;;;;;;6.35;3.03;;;19.30;82.50;;;;;;5059255;28;20024;-69
2022/09/10 09:54:24;;;;;;;6.00;2.92;;;19.20;82.60;;;;;;5094294;28;20081;-68
2022/09/10 09:56:52;;;;;;;6.07;2.92;;;19.10;82.70;;;;;;5077335;28;20054;-68
2022/09/10 09:59:35;;;;;;;5.80;2.92;;;19.10;82.80;;;;;;5077558;28;20028;-68
2022/09/10 10:02:11;;;;;;;5.85;3.05;;;19.00;82.80;;;;;;5095112;28;20046;-68
2022/09/10 10:04:51;;;;;;;6.45;3.33;;;19.00;82.90;;;;;;5095380;28;20086;-69
2022/09/10 10:07:30;;;;;;;6.63;3.00;;;18.90;82.90;;;;;;5075372;28;20031;-69
2022/09/10 10:09:59;;;;;;;5.90;2.97;;;18.90;82.90;;;;;;5072686;28;20039;-69
2022/09/10 10:12:30;;;;;;;5.45;2.70;;;18.90;83.00;;;;;;5077351;28;20066;-69
2022/09/10 10:14:57;;;;;;;5.82;2.85;;;18.90;83.00;;;;;;5095029;28;20518;-68
2022/09/10 10:17:39;;;;;;;4.45;2.40;;;18.80;83.10;;;;;;5069834;28;20048;-69
2022/09/10 10:20:10;;;;;;;5.05;2.35;;;18.80;83.10;;;;;;5089764;28;20445;-69
2022/09/10 10:22:38;;;;;;;5.50;2.38;;;18.80;83.20;;;;;;5084753;28;20039;-69
2022/09/10 10:25:25;;;;;;;4.93;2.53;;;18.80;83.20;;;;;;5087616;28;20036;-70
2022/09/10 10:27:53;;;;;;;4.53;2.50;;;18.80;83.30;;;;;;5088285;28;20154;-69
2022/09/10 10:30:21;;;;;;;4.55;2.22;;;18.80;83.30;;;;;;5071662;28;20032;-68
2022/09/10 10:33:01;;;;;;;3.55;1.73;;;18.80;83.30;;;;;;5086963;28;20020;-69
2022/09/10 10:35:47;;;;;;;3.75;2.00;;;18.90;83.20;;;;;;5070643;28;20029;-69
2022/09/10 10:38:26;;;;;;;4.80;2.10;;;19.00;83.20;;;;;;5050641;28;20051;-70
2022/09/10 10:41:17;;;;;;;4.07;2.10;;;19.10;83.20;;;;;;5086186;28;20029;-70
2022/09/10 10:44:01;;;;;;;3.43;1.80;;;19.20;83.00;;;;;;5052728;28;20032;-70
2022/09/10 10:46:52;;;;;;;6.32;2.80;;;19.30;82.70;;;;;;5071319;28;20051;-69
2022/09/10 10:49:24;;;;;;;4.32;2.38;;;19.50;82.40;;;;;;5071774;28;20119;-69
2022/09/10 10:52:00;;;;;;;6.38;2.90;;;19.50;82.10;;;;;;5068963;28;20028;-70
2022/09/10 10:54:36;;;;;;;5.55;3.22;;;19.60;82.20;;;;;;5084604;28;20421;-70
2022/09/10 10:57:29;;;;;;;5.93;3.53;;;19.80;81.50;;;;;;5065071;28;20077;-71
2022/09/10 11:00:02;;;;;;;6.82;3.78;;;20.10;81.00;;;;;;5087490;28;20024;-71
2022/09/10 11:02:49;;;;;;;8.25;5.68;;;20.50;80.20;;;;;;5067719;28;20093;-70
2022/09/10 11:05:22;;;;;;;7.80;5.53;;;20.90;79.50;;;;;;5063445;28;20122;-71
2022/09/10 11:07:48;;;;;;;8.55;6.30;;;21.20;78.50;;;;;;5067494;28;20040;-71
2022/09/10 11:10:53;;;;;;;9.07;5.95;;;21.50;78.00;;;;;;5060487;28;20020;-71
2022/09/10 11:13:30;;;;;;;8.23;5.50;;;21.60;77.70;;;;;;5077861;28;20116;-71
2022/09/10 11:16:03;;;;;;;9.02;6.18;;;21.70;77.60;;;;;;5098340;28;20452;-70
2022/09/10 11:19:06;;;;;;;7.63;6.03;;;21.60;77.60;;;;;;5097987;28;20066;-71
2022/09/10 11:21:37;;;;;;;8.70;6.20;;;21.40;78.20;;;;;;5043906;28;20044;-71
2022/09/10 11:24:26;;;;;;;8.20;5.40;;;21.20;78.60;;;;;;5067082;28;20028;-71
2022/09/10 11:27:01;;;;;;;7.05;4.80;;;21.00;79.20;;;;;;5075226;28;20032;-71
2022/09/10 11:29:50;;;;;;;6.80;4.05;;;20.80;79.60;;;;;;5091066;28;20067;-70
2022/09/10 11:32:21;;;;;;;6.40;3.90;;;20.70;79.70;;;;;;5096193;28;20046;-72
2022/09/10 11:35:07;;;;;;;7.05;3.90;;;20.70;80.60;;;;;;5079307;28;20058;-71
2022/09/10 11:37:51;;;;;;;6.80;4.00;;;20.60;79.90;;;;;;5079389;28;20020;-71
2022/09/10 11:40:38;;;;;;;6.93;3.90;;;20.60;80.00;;;;;;5073398;28;20032;-71
2022/09/10 11:43:12;;;;;;;5.63;3.35;;;20.80;79.90;;;;;;5068240;28;20039;-70
2022/09/10 11:45:38;;;;;;;6.47;3.53;;;20.80;79.30;;;;;;5084431;28;20099;-71
2022/09/10 11:48:16;;;;;;;5.00;3.10;;;20.80;79.20;;;;;;5062488;28;20028;-70
2022/09/10 11:51:01;;;;;;;5.13;3.10;;;20.80;79.10;;;;;;5094326;28;20032;-71
2022/09/10 11:53:29;;;;;;;6.30;3.15;;;20.80;79.20;;;;;;5088397;28;20016;-70
2022/09/10 11:56:26;;;;;;;6.53;3.70;;;20.80;79.10;;;;;;5095562;28;20027;-70
2022/09/10 11:59:14;;;;;;;5.35;3.03;;;20.80;79.20;;;;;;5079200;28;20029;-70
2022/09/10 12:02:24;;;;;;;6.97;3.10;;;20.90;79.20;;;;;;5094430;28;20036;-70
2022/09/10 12:04:58;;;;;;;5.60;3.00;;;21.10;78.90;;;;;;5068269;28;20376;-71
2022/09/10 12:07:42;;;;;;;6.47;2.95;;;21.20;78.50;;;;;;5090665;28;20116;-71
2022/09/10 12:10:31;;;;;;;4.65;2.80;;;21.30;78.10;;;;;;5077423;28;20032;-69
2022/09/10 12:12:57;;;;;;;5.55;2.80;;;21.20;78.10;;;;;;5087140;28;20093;-70
2022/09/10 12:15:25;;;;;;;6.53;3.10;;;21.20;78.20;;;;;;5075689;28;20036;-70
2022/09/10 12:18:15;;;;;;;5.75;3.50;;;21.40;78.20;;;;;;5092662;28;20055;-69
2022/09/10 12:20:53;;;;;;;5.88;3.60;;;21.50;78.20;;;;;;5094649;28;20032;-69
2022/09/10 12:23:41;;;;;;;4.82;2.72;;;21.50;78.10;;;;;;5092593;28;20415;-68
2022/09/10 12:26:16;;;;;;;5.75;2.78;;;21.50;77.80;;;;;;5092110;28;20043;-68
2022/09/10 12:28:42;;;;;;;4.85;2.67;;;21.60;77.80;;;;;;5094860;28;20039;-67
2022/09/10 12:31:13;;;;;;;4.53;2.45;;;21.60;77.40;;;;;;5095981;28;20349;-68
2022/09/10 12:34:07;;;;;;;4.55;2.53;;;21.70;77.00;;;;;;5066879;28;20115;-67
2022/09/10 12:36:33;;;;;;;5.78;2.50;;;21.90;76.50;;;;;;5077772;28;20046;-68
2022/09/10 12:39:24;;;;;;;4.90;2.60;;;21.90;76.40;;;;;;5062165;28;20114;-68
2022/09/10 12:41:50;;;;;;;4.85;2.90;;;21.80;76.40;;;;;;5078148;28;20032;-68
2022/09/10 12:44:34;;;;;;;5.70;2.95;;;21.70;76.60;;;;;;5071821;28;20031;-69
2022/09/10 12:47:15;;;;;;;5.00;2.53;;;21.60;76.90;;;;;;5073414;28;20464;-68
2022/09/10 12:49:56;;;;;;;5.25;2.95;;;21.40;76.90;;;;;;5095454;28;20028;-68
2022/09/10 12:52:33;;;;;;;6.22;3.15;;;21.30;77.10;;;;;;5096061;28;20433;-68
2022/09/10 12:55:30;;;;;;;5.88;3.05;;;21.20;77.30;;;;;;5075019;28;20034;-68
2022/09/10 12:57:57;;;;;;;4.97;2.72;;;21.20;77.40;;;;;;5083720;28;20023;-68
2022/09/10 13:00:25;;;;;;;4.90;2.90;;;21.10;77.20;;;;;;5087891;28;20115;-68
2022/09/10 13:03:07;;;;;;;6.07;3.08;;;21.10;77.30;;;;;;5095146;28;20571;-68
2022/09/10 13:05:38;;;;;;;5.97;3.65;;;21.00;77.30;;;;;;5058771;28;20032;-68
2022/09/10 13:08:11;;;;;;;6.20;3.75;;;21.00;77.30;;;;;;5094126;28;20031;-68